sensor_id;sensor_type;location;lat;lon;timestamp;temperature;humidity
23207;DHT22;11773;52.570;13.052;2023-03-01T00:01:58;0.90;99.90
23207;DHT22;11773;52.570;13.052;2023-03-01T00:04:28;0.90;99.90
23207;DHT22;11773;52.570;13.052;2023-03-01T00:06:58;0.80;99.90
23207;DHT22;11773;52.570;13.052;2023-03-01T00:09:27;0.80;99.90
23207;DHT22;11773;52.570;13.052;2023-03-01T00:11:57;0.80;99.90
23207;DHT22;11773;52.570;13.052;2023-03-01T00:14:26;0.90;99.90
23207;DHT22;11773;52.570;13.052;2023-03-01T00:16:56;0.90;99.90
23207;DHT22;11773;52.570;13.052;2023-03-01T00:19:26;0.70;99.90
23207;DHT22;11773;52.570;13.052;2023-03-01T00:21:55;0.80;99.90
23207;DHT22;11773;52.570;13.052;2023-03-01T00:24:25;0.80;99.90
23207;DHT22;11773;52.570;13.052;2023-03-01T00:26:55;0.80;99.90
23207;DHT22;11773;52.570;13.052;2023-03-01T00:29:25;0.80;99.90
23207;DHT22;11773;52.570;13.052;2023-03-01T00:31:54;0.70;99.90
23207;DHT22;11773;52.570;13.052;2023-03-01T00:34:24;0.70;99.90
23207;DHT22;11773;52.570;13.052;2023-03-01T00:36:53;0.80;99.90
23207;DHT22;11773;52.570;13.052;2023-03-01T00:39:23;0.80;99.90
23207;DHT22;11773;52.570;13.052;2023-03-01T00:41:52;0.90;99.90
23207;DHT22;11773;52.570;13.052;2023-03-01T00:44:22;0.70;99.90
23207;DHT22;11773;52.570;13.052;2023-03-01T00:46:51;0.50;99.90
23207;DHT22;11773;52.570;13.052;2023-03-01T00:49:20;0.50;99.90
23207;DHT22;11773;52.570;13.052;2023-03-01T00:51:52;0.60;99.90
23207;DHT22;11773;52.570;13.052;2023-03-01T00:54:21;0.70;99.90
23207;DHT22;11773;52.570;13.052;2023-03-01T00:56:51;0.70;99.90
23207;DHT22;11773;52.570;13.052;2023-03-01T00:59:20;0.70;99.90
23207;DHT22;11773;52.570;13.052;2023-03-01T01:01:50;0.70;99.90
23207;DHT22;11773;52.570;13.052;2023-03-01T01:04:19;0.70;99.90
23207;DHT22;11773;52.570;13.052;2023-03-01T01:06:49;0.80;99.90
23207;DHT22;11773;52.570;13.052;2023-03-01T01:09:19;0.70;99.90
23207;DHT22;11773;52.570;13.052;2023-03-01T01:11:50;0.50;99.90
23207;DHT22;11773;52.570;13.052;2023-03-01T01:14:20;0.60;99.90
23207;DHT22;11773;52.570;13.052;2023-03-01T01:16:49;0.60;99.90
23207;DHT22;11773;52.570;13.052;2023-03-01T01:19:19;0.60;99.90
23207;DHT22;11773;52.570;13.052;2023-03-01T01:21:49;0.60;99.90
23207;DHT22;11773;52.570;13.052;2023-03-01T01:24:19;0.60;99.90
23207;DHT22;11773;52.570;13.052;2023-03-01T01:26:48;0.50;99.90
23207;DHT22;11773;52.570;13.052;2023-03-01T01:29:18;0.40;99.90
23207;DHT22;11773;52.570;13.052;2023-03-01T01:31:47;0.40;99.90
23207;DHT22;11773;52.570;13.052;2023-03-01T01:34:19;0.60;99.90
23207;DHT22;11773;52.570;13.052;2023-03-01T01:36:51;0.50;99.90
23207;DHT22;11773;52.570;13.052;2023-03-01T01:39:22;0.50;99.90
23207;DHT22;11773;52.570;13.052;2023-03-01T01:41:51;0.50;99.90
23207;DHT22;11773;52.570;13.052;2023-03-01T01:44:26;0.30;99.90
23207;DHT22;11773;52.570;13.052;2023-03-01T01:47:13;0.40;99.90
23207;DHT22;11773;52.570;13.052;2023-03-01T01:49:53;0.40;99.90
23207;DHT22;11773;52.570;13.052;2023-03-01T01:52:26;0.40;99.90
23207;DHT22;11773;52.570;13.052;2023-03-01T01:55:04;0.30;99.90
23207;DHT22;11773;52.570;13.052;2023-03-01T01:58:02;0.30;99.90
23207;DHT22;11773;52.570;13.052;2023-03-01T02:00:31;0.30;99.90
23207;DHT22;11773;52.570;13.052;2023-03-01T02:03:07;0.30;99.90
23207;DHT22;11773;52.570;13.052;2023-03-01T02:05:57;0.40;99.90
23207;DHT22;11773;52.570;13.052;2023-03-01T02:08:37;0.30;99.90
23207;DHT22;11773;52.570;13.052;2023-03-01T02:11:10;0.40;99.90
23207;DHT22;11773;52.570;13.052;2023-03-01T02:13:42;0.50;99.90
23207;DHT22;11773;52.570;13.052;2023-03-01T02:16:15;0.30;99.90
23207;DHT22;11773;52.570;13.052;2023-03-01T02:18:45;0.30;99.90
23207;DHT22;11773;52.570;13.052;2023-03-01T02:24:47;0.00;99.90
23207;DHT22;11773;52.570;13.052;2023-03-01T02:27:22;0.10;99.90
23207;DHT22;11773;52.570;13.052;2023-03-01T02:29:55;-0.20;99.90
23207;DHT22;11773;52.570;13.052;2023-03-01T02:36:07;0.10;99.90
23207;DHT22;11773;52.570;13.052;2023-03-01T02:38:33;0.00;99.90
23207;DHT22;11773;52.570;13.052;2023-03-01T02:41:04;-0.20;99.90
23207;DHT22;11773;52.570;13.052;2023-03-01T02:43:35;-0.30;99.90
23207;DHT22;11773;52.570;13.052;2023-03-01T02:46:14;-0.40;99.90
23207;DHT22;11773;52.570;13.052;2023-03-01T02:48:47;-0.30;99.90
23207;DHT22;11773;52.570;13.052;2023-03-01T02:51:51;-0.40;99.90
23207;DHT22;11773;52.570;13.052;2023-03-01T02:54:32;-0.30;99.90
23207;DHT22;11773;52.570;13.052;2023-03-01T02:57:20;-0.30;99.90
23207;DHT22;11773;52.570;13.052;2023-03-01T02:59:51;-0.20;99.90
23207;DHT22;11773;52.570;13.052;2023-03-01T03:02:25;-0.40;99.90
23207;DHT22;11773;52.570;13.052;2023-03-01T03:07:49;-0.50;99.90
23207;DHT22;11773;52.570;13.052;2023-03-01T03:10:31;-0.30;99.90
23207;DHT22;11773;52.570;13.052;2023-03-01T03:13:06;-0.40;99.90
23207;DHT22;11773;52.570;13.052;2023-03-01T03:15:33;-0.50;99.90
23207;DHT22;11773;52.570;13.052;2023-03-01T03:18:09;-0.40;99.90
23207;DHT22;11773;52.570;13.052;2023-03-01T03:20:41;-0.30;99.90
23207;DHT22;11773;52.570;13.052;2023-03-01T03:23:12;-0.30;99.90
23207;DHT22;11773;52.570;13.052;2023-03-01T03:25:42;-0.40;99.90
23207;DHT22;11773;52.570;13.052;2023-03-01T03:28:11;-0.40;99.90
23207;DHT22;11773;52.570;13.052;2023-03-01T03:30:41;-0.40;99.90
23207;DHT22;11773;52.570;13.052;2023-03-01T03:33:12;-0.50;99.90
23207;DHT22;11773;52.570;13.052;2023-03-01T03:35:44;-0.40;99.90
23207;DHT22;11773;52.570;13.052;2023-03-01T03:38:18;-0.40;99.90
23207;DHT22;11773;52.570;13.052;2023-03-01T03:40:51;-0.50;99.90
23207;DHT22;11773;52.570;13.052;2023-03-01T03:43:23;-0.40;99.90
23207;DHT22;11773;52.570;13.052;2023-03-01T03:45:52;-0.40;99.90
23207;DHT22;11773;52.570;13.052;2023-03-01T03:48:24;-0.30;99.90
23207;DHT22;11773;52.570;13.052;2023-03-01T03:50:56;-0.40;99.90
23207;DHT22;11773;52.570;13.052;2023-03-01T03:53:27;-0.50;99.90
23207;DHT22;11773;52.570;13.052;2023-03-01T03:55:57;-0.70;99.90
23207;DHT22;11773;52.570;13.052;2023-03-01T03:58:27;-0.70;99.90
23207;DHT22;11773;52.570;13.052;2023-03-01T04:00:57;-0.80;99.90
23207;DHT22;11773;52.570;13.052;2023-03-01T04:03:27;-0.70;99.90
23207;DHT22;11773;52.570;13.052;2023-03-01T04:06:00;-0.70;99.90
23207;DHT22;11773;52.570;13.052;2023-03-01T04:08:31;-0.60;99.90
23207;DHT22;11773;52.570;13.052;2023-03-01T04:11:03;-0.70;99.90
23207;DHT22;11773;52.570;13.052;2023-03-01T04:13:53;-0.70;99.90
23207;DHT22;11773;52.570;13.052;2023-03-01T04:16:25;-0.80;99.90
23207;DHT22;11773;52.570;13.052;2023-03-01T04:18:55;-0.70;99.90
23207;DHT22;11773;52.570;13.052;2023-03-01T04:21:26;-0.90;99.90
23207;DHT22;11773;52.570;13.052;2023-03-01T04:23:55;-0.80;99.90
23207;DHT22;11773;52.570;13.052;2023-03-01T04:26:25;-0.60;99.90
23207;DHT22;11773;52.570;13.052;2023-03-01T04:28:55;-0.70;99.90
23207;DHT22;11773;52.570;13.052;2023-03-01T04:31:24;-0.70;99.90
23207;DHT22;11773;52.570;13.052;2023-03-01T04:33:55;-0.60;99.90
23207;DHT22;11773;52.570;13.052;2023-03-01T04:36:27;-0.50;99.90
23207;DHT22;11773;52.570;13.052;2023-03-01T04:38:58;-0.60;99.90
23207;DHT22;11773;52.570;13.052;2023-03-01T04:41:28;-0.70;99.90
23207;DHT22;11773;52.570;13.052;2023-03-01T04:43:57;-0.70;99.90
23207;DHT22;11773;52.570;13.052;2023-03-01T04:46:27;-0.70;99.90
23207;DHT22;11773;52.570;13.052;2023-03-01T04:48:57;-0.90;99.90
23207;DHT22;11773;52.570;13.052;2023-03-01T04:51:27;-0.90;99.90
23207;DHT22;11773;52.570;13.052;2023-03-01T04:53:57;-0.80;99.90
23207;DHT22;11773;52.570;13.052;2023-03-01T04:56:27;-0.90;99.90
23207;DHT22;11773;52.570;13.052;2023-03-01T04:58:58;-0.90;99.90
23207;DHT22;11773;52.570;13.052;2023-03-01T05:01:28;-0.90;99.90
23207;DHT22;11773;52.570;13.052;2023-03-01T05:03:57;-0.80;99.90
23207;DHT22;11773;52.570;13.052;2023-03-01T05:06:29;-0.90;99.90
23207;DHT22;11773;52.570;13.052;2023-03-01T05:08:59;-0.80;99.90
23207;DHT22;11773;52.570;13.052;2023-03-01T05:11:28;-0.90;99.90
23207;DHT22;11773;52.570;13.052;2023-03-01T05:13:59;-0.80;99.90
23207;DHT22;11773;52.570;13.052;2023-03-01T05:16:29;-0.80;99.90
23207;DHT22;11773;52.570;13.052;2023-03-01T05:19:00;-0.80;99.90
23207;DHT22;11773;52.570;13.052;2023-03-01T05:21:32;-0.60;99.90
23207;DHT22;11773;52.570;13.052;2023-03-01T05:24:01;-0.60;99.90
23207;DHT22;11773;52.570;13.052;2023-03-01T05:26:31;-0.70;99.90
23207;DHT22;11773;52.570;13.052;2023-03-01T05:29:01;-0.80;99.90
23207;DHT22;11773;52.570;13.052;2023-03-01T05:31:30;-0.80;99.90
23207;DHT22;11773;52.570;13.052;2023-03-01T05:33:59;-0.90;99.90
23207;DHT22;11773;52.570;13.052;2023-03-01T05:36:29;-1.10;99.90
23207;DHT22;11773;52.570;13.052;2023-03-01T05:39:00;-1.10;99.90
23207;DHT22;11773;52.570;13.052;2023-03-01T05:41:29;-1.10;99.90
23207;DHT22;11773;52.570;13.052;2023-03-01T05:43:59;-0.80;99.90
23207;DHT22;11773;52.570;13.052;2023-03-01T05:46:28;-0.80;99.90
23207;DHT22;11773;52.570;13.052;2023-03-01T05:48:58;-0.90;99.90
23207;DHT22;11773;52.570;13.052;2023-03-01T05:51:28;-1.00;99.90
23207;DHT22;11773;52.570;13.052;2023-03-01T05:53:57;-1.00;99.90
23207;DHT22;11773;52.570;13.052;2023-03-01T05:56:27;-1.00;99.90
23207;DHT22;11773;52.570;13.052;2023-03-01T05:58:57;-1.10;99.90
23207;DHT22;11773;52.570;13.052;2023-03-01T06:01:27;-1.00;99.90
23207;DHT22;11773;52.570;13.052;2023-03-01T06:03:56;-1.00;99.90
23207;DHT22;11773;52.570;13.052;2023-03-01T06:06:26;-1.10;99.90
23207;DHT22;11773;52.570;13.052;2023-03-01T06:08:56;-1.10;99.90
23207;DHT22;11773;52.570;13.052;2023-03-01T06:11:25;-1.10;99.90
23207;DHT22;11773;52.570;13.052;2023-03-01T06:13:55;-1.20;99.90
23207;DHT22;11773;52.570;13.052;2023-03-01T06:16:24;-1.20;99.90
23207;DHT22;11773;52.570;13.052;2023-03-01T06:18:54;-1.20;99.90
23207;DHT22;11773;52.570;13.052;2023-03-01T06:21:23;-1.20;99.90
23207;DHT22;11773;52.570;13.052;2023-03-01T06:23:53;-1.10;99.90
23207;DHT22;11773;52.570;13.052;2023-03-01T06:26:22;-0.90;99.90
23207;DHT22;11773;52.570;13.052;2023-03-01T06:28:52;-1.00;99.90
23207;DHT22;11773;52.570;13.052;2023-03-01T06:31:21;-1.00;99.90
23207;DHT22;11773;52.570;13.052;2023-03-01T06:33:51;-0.90;99.90
23207;DHT22;11773;52.570;13.052;2023-03-01T06:36:20;-0.80;99.90
23207;DHT22;11773;52.570;13.052;2023-03-01T06:38:50;-0.90;99.90
23207;DHT22;11773;52.570;13.052;2023-03-01T06:41:19;-0.90;99.90
23207;DHT22;11773;52.570;13.052;2023-03-01T06:43:48;-0.90;99.90
23207;DHT22;11773;52.570;13.052;2023-03-01T06:46:18;-1.10;99.90
23207;DHT22;11773;52.570;13.052;2023-03-01T06:48:47;-1.10;99.90
23207;DHT22;11773;52.570;13.052;2023-03-01T06:51:18;-1.10;99.90
23207;DHT22;11773;52.570;13.052;2023-03-01T06:53:48;-0.90;99.90
23207;DHT22;11773;52.570;13.052;2023-03-01T06:56:17;-0.90;99.90
23207;DHT22;11773;52.570;13.052;2023-03-01T06:58:47;-0.60;99.90
23207;DHT22;11773;52.570;13.052;2023-03-01T07:01:16;-0.50;99.90
23207;DHT22;11773;52.570;13.052;2023-03-01T07:03:46;-0.50;99.90
23207;DHT22;11773;52.570;13.052;2023-03-01T07:06:15;-0.40;99.90
23207;DHT22;11773;52.570;13.052;2023-03-01T07:08:45;-0.10;99.90
23207;DHT22;11773;52.570;13.052;2023-03-01T07:11:15;0.00;99.90
23207;DHT22;11773;52.570;13.052;2023-03-01T07:13:44;0.10;99.90
23207;DHT22;11773;52.570;13.052;2023-03-01T07:16:14;0.00;99.90
23207;DHT22;11773;52.570;13.052;2023-03-01T07:18:44;0.00;99.90
23207;DHT22;11773;52.570;13.052;2023-03-01T07:21:14;-0.10;99.90
23207;DHT22;11773;52.570;13.052;2023-03-01T07:23:46;-0.20;99.90
23207;DHT22;11773;52.570;13.052;2023-03-01T07:26:17;-0.20;99.90
23207;DHT22;11773;52.570;13.052;2023-03-01T07:28:47;-0.10;99.90
23207;DHT22;11773;52.570;13.052;2023-03-01T07:31:17;0.00;99.90
23207;DHT22;11773;52.570;13.052;2023-03-01T07:33:46;0.00;99.90
23207;DHT22;11773;52.570;13.052;2023-03-01T07:36:17;0.00;99.90
23207;DHT22;11773;52.570;13.052;2023-03-01T07:38:47;0.10;99.90
23207;DHT22;11773;52.570;13.052;2023-03-01T07:41:17;0.10;99.90
23207;DHT22;11773;52.570;13.052;2023-03-01T07:43:46;0.20;99.90
23207;DHT22;11773;52.570;13.052;2023-03-01T07:46:16;0.20;99.90
23207;DHT22;11773;52.570;13.052;2023-03-01T07:48:47;0.30;99.90
23207;DHT22;11773;52.570;13.052;2023-03-01T07:51:16;0.30;99.90
23207;DHT22;11773;52.570;13.052;2023-03-01T07:53:47;0.60;99.90
23207;DHT22;11773;52.570;13.052;2023-03-01T07:56:17;0.70;99.90
23207;DHT22;11773;52.570;13.052;2023-03-01T07:58:47;0.70;99.90
23207;DHT22;11773;52.570;13.052;2023-03-01T08:01:19;0.70;99.90
23207;DHT22;11773;52.570;13.052;2023-03-01T08:03:49;0.70;99.90
23207;DHT22;11773;52.570;13.052;2023-03-01T08:06:19;0.70;99.90
23207;DHT22;11773;52.570;13.052;2023-03-01T08:08:48;0.90;99.90
23207;DHT22;11773;52.570;13.052;2023-03-01T08:11:18;0.90;99.90
23207;DHT22;11773;52.570;13.052;2023-03-01T08:13:48;0.90;99.90
23207;DHT22;11773;52.570;13.052;2023-03-01T08:16:19;1.00;99.90
23207;DHT22;11773;52.570;13.052;2023-03-01T08:18:49;1.10;99.90
23207;DHT22;11773;52.570;13.052;2023-03-01T08:21:19;1.20;99.90
23207;DHT22;11773;52.570;13.052;2023-03-01T08:23:48;1.20;99.90
23207;DHT22;11773;52.570;13.052;2023-03-01T08:26:19;1.30;99.90
23207;DHT22;11773;52.570;13.052;2023-03-01T08:28:49;1.40;99.90
23207;DHT22;11773;52.570;13.052;2023-03-01T08:31:27;1.50;99.90
23207;DHT22;11773;52.570;13.052;2023-03-01T08:34:00;1.60;99.90
23207;DHT22;11773;52.570;13.052;2023-03-01T08:36:33;1.60;99.90
23207;DHT22;11773;52.570;13.052;2023-03-01T08:39:09;1.60;99.90
23207;DHT22;11773;52.570;13.052;2023-03-01T08:41:42;1.80;99.90
23207;DHT22;11773;52.570;13.052;2023-03-01T08:44:15;1.90;99.90
23207;DHT22;11773;52.570;13.052;2023-03-01T08:46:45;2.00;99.90
23207;DHT22;11773;52.570;13.052;2023-03-01T08:49:16;2.10;99.90
23207;DHT22;11773;52.570;13.052;2023-03-01T08:51:47;2.10;99.90
23207;DHT22;11773;52.570;13.052;2023-03-01T08:54:19;2.30;99.90
23207;DHT22;11773;52.570;13.052;2023-03-01T08:56:49;2.40;99.90
23207;DHT22;11773;52.570;13.052;2023-03-01T08:59:19;2.50;99.90
23207;DHT22;11773;52.570;13.052;2023-03-01T09:01:48;2.60;99.90
23207;DHT22;11773;52.570;13.052;2023-03-01T09:04:18;2.70;99.90
23207;DHT22;11773;52.570;13.052;2023-03-01T09:06:47;2.70;99.90
23207;DHT22;11773;52.570;13.052;2023-03-01T09:09:17;2.80;99.90
23207;DHT22;11773;52.570;13.052;2023-03-01T09:11:47;2.90;99.90
23207;DHT22;11773;52.570;13.052;2023-03-01T09:14:17;3.10;99.90
23207;DHT22;11773;52.570;13.052;2023-03-01T09:16:47;3.10;99.90
23207;DHT22;11773;52.570;13.052;2023-03-01T09:19:16;3.30;99.90
23207;DHT22;11773;52.570;13.052;2023-03-01T09:21:46;3.30;99.90
23207;DHT22;11773;52.570;13.052;2023-03-01T09:24:23;3.50;99.90
23207;DHT22;11773;52.570;13.052;2023-03-01T09:26:54;3.60;99.90
23207;DHT22;11773;52.570;13.052;2023-03-01T09:29:24;3.70;99.90
23207;DHT22;11773;52.570;13.052;2023-03-01T09:31:54;3.80;99.90
23207;DHT22;11773;52.570;13.052;2023-03-01T09:34:23;3.90;99.90
23207;DHT22;11773;52.570;13.052;2023-03-01T09:36:53;4.00;99.90
23207;DHT22;11773;52.570;13.052;2023-03-01T09:39:22;4.10;99.90
23207;DHT22;11773;52.570;13.052;2023-03-01T09:42:05;4.20;99.90
23207;DHT22;11773;52.570;13.052;2023-03-01T09:44:48;4.20;99.90
23207;DHT22;11773;52.570;13.052;2023-03-01T09:47:34;4.40;99.90
23207;DHT22;11773;52.570;13.052;2023-03-01T09:50:16;4.40;99.90
23207;DHT22;11773;52.570;13.052;2023-03-01T09:53:01;4.50;99.90
23207;DHT22;11773;52.570;13.052;2023-03-01T09:55:43;4.60;99.90
23207;DHT22;11773;52.570;13.052;2023-03-01T09:58:35;4.80;99.90
23207;DHT22;11773;52.570;13.052;2023-03-01T10:01:22;4.80;99.90
23207;DHT22;11773;52.570;13.052;2023-03-01T10:07:05;4.90;99.90
23207;DHT22;11773;52.570;13.052;2023-03-01T10:09:44;5.00;99.90
23207;DHT22;11773;52.570;13.052;2023-03-01T10:12:23;5.10;99.90
23207;DHT22;11773;52.570;13.052;2023-03-01T10:15:33;5.10;99.90
23207;DHT22;11773;52.570;13.052;2023-03-01T10:18:09;5.20;99.90
23207;DHT22;11773;52.570;13.052;2023-03-01T10:20:48;5.30;99.90
23207;DHT22;11773;52.570;13.052;2023-03-01T10:23:32;5.50;99.90
23207;DHT22;11773;52.570;13.052;2023-03-01T10:26:21;5.50;99.90
23207;DHT22;11773;52.570;13.052;2023-03-01T10:29:11;5.50;99.90
23207;DHT22;11773;52.570;13.052;2023-03-01T10:31:46;5.50;99.90
23207;DHT22;11773;52.570;13.052;2023-03-01T10:37:16;5.70;99.90
23207;DHT22;11773;52.570;13.052;2023-03-01T10:39:57;5.70;99.90
23207;DHT22;11773;52.570;13.052;2023-03-01T10:42:31;5.80;99.90
23207;DHT22;11773;52.570;13.052;2023-03-01T10:45:37;5.80;99.90
23207;DHT22;11773;52.570;13.052;2023-03-01T10:48:22;5.90;99.90
23207;DHT22;11773;52.570;13.052;2023-03-01T10:53:43;6.20;99.90
23207;DHT22;11773;52.570;13.052;2023-03-01T10:56:15;6.30;99.90
23207;DHT22;11773;52.570;13.052;2023-03-01T10:59:03;6.40;99.90
23207;DHT22;11773;52.570;13.052;2023-03-01T11:01:35;6.30;99.90
23207;DHT22;11773;52.570;13.052;2023-03-01T11:06:40;6.40;99.90
23207;DHT22;11773;52.570;13.052;2023-03-01T11:09:18;6.40;99.90
23207;DHT22;11773;52.570;13.052;2023-03-01T11:11:55;6.70;99.90
23207;DHT22;11773;52.570;13.052;2023-03-01T11:14:33;6.50;99.90
23207;DHT22;11773;52.570;13.052;2023-03-01T11:20:04;6.60;99.90
23207;DHT22;11773;52.570;13.052;2023-03-01T11:22:52;6.70;99.90
23207;DHT22;11773;52.570;13.052;2023-03-01T11:25:29;6.80;99.90
23207;DHT22;11773;52.570;13.052;2023-03-01T11:28:01;6.90;99.90
23207;DHT22;11773;52.570;13.052;2023-03-01T11:30:42;6.90;99.90
23207;DHT22;11773;52.570;13.052;2023-03-01T11:33:33;7.00;99.90
23207;DHT22;11773;52.570;13.052;2023-03-01T11:38:46;6.90;99.90
23207;DHT22;11773;52.570;13.052;2023-03-01T11:41:25;6.90;99.90
23207;DHT22;11773;52.570;13.052;2023-03-01T11:44:02;7.10;99.90
23207;DHT22;11773;52.570;13.052;2023-03-01T11:46:47;7.10;99.90
23207;DHT22;11773;52.570;13.052;2023-03-01T11:52:46;7.20;99.90
23207;DHT22;11773;52.570;13.052;2023-03-01T11:58:40;7.20;99.90
23207;DHT22;11773;52.570;13.052;2023-03-01T12:01:16;7.10;99.90
23207;DHT22;11773;52.570;13.052;2023-03-01T12:04:11;7.40;99.90
23207;DHT22;11773;52.570;13.052;2023-03-01T12:06:57;7.40;99.90
23207;DHT22;11773;52.570;13.052;2023-03-01T12:09:48;7.40;99.90
23207;DHT22;11773;52.570;13.052;2023-03-01T12:12:33;7.40;99.90
23207;DHT22;11773;52.570;13.052;2023-03-01T12:15:29;7.40;99.90
23207;DHT22;11773;52.570;13.052;2023-03-01T12:24:06;7.60;99.90
23207;DHT22;11773;52.570;13.052;2023-03-01T12:29:39;7.70;99.90
23207;DHT22;11773;52.570;13.052;2023-03-01T12:32:36;7.70;99.90
23207;DHT22;11773;52.570;13.052;2023-03-01T12:35:25;7.60;99.90
23207;DHT22;11773;52.570;13.052;2023-03-01T12:38:06;7.70;99.90
23207;DHT22;11773;52.570;13.052;2023-03-01T12:43:47;7.70;99.90
23207;DHT22;11773;52.570;13.052;2023-03-01T12:49:19;7.80;99.90
23207;DHT22;11773;52.570;13.052;2023-03-01T12:52:16;7.80;99.90
23207;DHT22;11773;52.570;13.052;2023-03-01T12:54:52;7.80;99.90
23207;DHT22;11773;52.570;13.052;2023-03-01T12:57:37;7.90;99.90
23207;DHT22;11773;52.570;13.052;2023-03-01T13:00:24;8.10;99.90
23207;DHT22;11773;52.570;13.052;2023-03-01T13:05:48;8.10;99.90
23207;DHT22;11773;52.570;13.052;2023-03-01T13:08:31;8.10;99.90
23207;DHT22;11773;52.570;13.052;2023-03-01T13:11:05;8.20;99.90
23207;DHT22;11773;52.570;13.052;2023-03-01T13:13:36;8.20;99.90
23207;DHT22;11773;52.570;13.052;2023-03-01T13:16:44;8.10;99.90
23207;DHT22;11773;52.570;13.052;2023-03-01T13:19:18;8.20;99.90
23207;DHT22;11773;52.570;13.052;2023-03-01T13:21:50;8.30;99.90
23207;DHT22;11773;52.570;13.052;2023-03-01T13:27:23;8.20;99.90
23207;DHT22;11773;52.570;13.052;2023-03-01T13:29:58;8.20;99.90
23207;DHT22;11773;52.570;13.052;2023-03-01T13:32:36;8.30;99.90
23207;DHT22;11773;52.570;13.052;2023-03-01T13:37:50;8.20;99.90
23207;DHT22;11773;52.570;13.052;2023-03-01T13:42:54;8.20;99.90
23207;DHT22;11773;52.570;13.052;2023-03-01T13:45:38;8.20;99.90
23207;DHT22;11773;52.570;13.052;2023-03-01T13:48:18;8.20;99.90
23207;DHT22;11773;52.570;13.052;2023-03-01T13:50:51;8.00;99.90
23207;DHT22;11773;52.570;13.052;2023-03-01T13:53:25;8.00;99.90
23207;DHT22;11773;52.570;13.052;2023-03-01T13:56:02;8.00;99.90
23207;DHT22;11773;52.570;13.052;2023-03-01T13:59:04;8.00;99.90
23207;DHT22;11773;52.570;13.052;2023-03-01T14:01:33;8.10;99.90
23207;DHT22;11773;52.570;13.052;2023-03-01T14:04:19;8.00;99.90
23207;DHT22;11773;52.570;13.052;2023-03-01T14:06:50;8.00;99.90
23207;DHT22;11773;52.570;13.052;2023-03-01T14:09:25;8.10;99.90
23207;DHT22;11773;52.570;13.052;2023-03-01T14:15:14;8.00;98.50
23207;DHT22;11773;52.570;13.052;2023-03-01T14:18:24;8.20;99.90
23207;DHT22;11773;52.570;13.052;2023-03-01T14:20:54;8.30;99.60
23207;DHT22;11773;52.570;13.052;2023-03-01T14:23:24;8.20;99.90
23207;DHT22;11773;52.570;13.052;2023-03-01T14:25:56;8.10;99.90
23207;DHT22;11773;52.570;13.052;2023-03-01T14:28:28;8.20;99.90
23207;DHT22;11773;52.570;13.052;2023-03-01T14:31:02;8.20;99.90
23207;DHT22;11773;52.570;13.052;2023-03-01T14:33:34;8.30;99.90
23207;DHT22;11773;52.570;13.052;2023-03-01T14:36:12;8.30;99.90
23207;DHT22;11773;52.570;13.052;2023-03-01T14:38:46;8.30;99.90
23207;DHT22;11773;52.570;13.052;2023-03-01T14:41:22;8.40;99.90
23207;DHT22;11773;52.570;13.052;2023-03-01T14:43:57;8.20;99.90
23207;DHT22;11773;52.570;13.052;2023-03-01T14:46:36;8.30;99.90
23207;DHT22;11773;52.570;13.052;2023-03-01T14:49:25;8.30;99.90
23207;DHT22;11773;52.570;13.052;2023-03-01T14:52:02;8.40;99.90
23207;DHT22;11773;52.570;13.052;2023-03-01T14:54:53;8.40;99.90
23207;DHT22;11773;52.570;13.052;2023-03-01T14:57:25;8.30;99.90
23207;DHT22;11773;52.570;13.052;2023-03-01T15:00:00;8.20;99.90
23207;DHT22;11773;52.570;13.052;2023-03-01T15:02:35;8.20;99.90
23207;DHT22;11773;52.570;13.052;2023-03-01T15:05:08;8.20;99.90
23207;DHT22;11773;52.570;13.052;2023-03-01T15:07:40;8.20;99.90
23207;DHT22;11773;52.570;13.052;2023-03-01T15:10:17;8.20;99.90
23207;DHT22;11773;52.570;13.052;2023-03-01T15:12:50;8.30;99.90
23207;DHT22;11773;52.570;13.052;2023-03-01T15:15:32;8.20;99.90
23207;DHT22;11773;52.570;13.052;2023-03-01T15:18:18;8.20;99.90
23207;DHT22;11773;52.570;13.052;2023-03-01T15:20:49;8.10;99.90
23207;DHT22;11773;52.570;13.052;2023-03-01T15:23:28;8.10;99.90
23207;DHT22;11773;52.570;13.052;2023-03-01T15:25:58;8.10;99.90
23207;DHT22;11773;52.570;13.052;2023-03-01T15:28:30;8.10;99.90
23207;DHT22;11773;52.570;13.052;2023-03-01T15:31:29;8.00;99.90
23207;DHT22;11773;52.570;13.052;2023-03-01T15:36:55;8.00;99.90
23207;DHT22;11773;52.570;13.052;2023-03-01T15:39:35;7.90;99.90
23207;DHT22;11773;52.570;13.052;2023-03-01T15:44:44;8.00;99.90
23207;DHT22;11773;52.570;13.052;2023-03-01T15:47:33;7.90;99.90
23207;DHT22;11773;52.570;13.052;2023-03-01T15:50:00;8.00;99.90
23207;DHT22;11773;52.570;13.052;2023-03-01T15:52:39;7.90;99.90
23207;DHT22;11773;52.570;13.052;2023-03-01T15:55:20;7.90;99.90
23207;DHT22;11773;52.570;13.052;2023-03-01T15:58:05;7.80;99.90
23207;DHT22;11773;52.570;13.052;2023-03-01T16:00:36;7.80;99.90
23207;DHT22;11773;52.570;13.052;2023-03-01T16:03:12;7.90;99.90
23207;DHT22;11773;52.570;13.052;2023-03-01T16:05:41;7.80;99.90
23207;DHT22;11773;52.570;13.052;2023-03-01T16:08:11;7.80;99.90
23207;DHT22;11773;52.570;13.052;2023-03-01T16:10:41;7.70;99.90
23207;DHT22;11773;52.570;13.052;2023-03-01T16:13:12;7.70;99.90
23207;DHT22;11773;52.570;13.052;2023-03-01T16:15:42;7.60;99.90
23207;DHT22;11773;52.570;13.052;2023-03-01T16:18:11;7.60;99.90
23207;DHT22;11773;52.570;13.052;2023-03-01T16:20:41;7.50;99.90
23207;DHT22;11773;52.570;13.052;2023-03-01T16:23:11;7.50;99.90
23207;DHT22;11773;52.570;13.052;2023-03-01T16:25:41;7.50;99.90
23207;DHT22;11773;52.570;13.052;2023-03-01T16:28:11;7.50;99.90
23207;DHT22;11773;52.570;13.052;2023-03-01T16:30:45;7.40;99.90
23207;DHT22;11773;52.570;13.052;2023-03-01T16:33:18;7.30;99.90
23207;DHT22;11773;52.570;13.052;2023-03-01T16:35:50;7.20;99.90
23207;DHT22;11773;52.570;13.052;2023-03-01T16:38:19;7.10;99.90
23207;DHT22;11773;52.570;13.052;2023-03-01T16:40:50;7.00;99.90
23207;DHT22;11773;52.570;13.052;2023-03-01T16:43:20;6.90;99.90
23207;DHT22;11773;52.570;13.052;2023-03-01T16:45:50;6.80;99.90
23207;DHT22;11773;52.570;13.052;2023-03-01T16:48:20;6.80;99.90
23207;DHT22;11773;52.570;13.052;2023-03-01T16:50:58;6.70;99.90
23207;DHT22;11773;52.570;13.052;2023-03-01T16:53:28;6.60;99.90
23207;DHT22;11773;52.570;13.052;2023-03-01T16:55:58;6.60;99.90
23207;DHT22;11773;52.570;13.052;2023-03-01T16:58:28;6.50;99.90
23207;DHT22;11773;52.570;13.052;2023-03-01T17:03:38;6.40;99.90
23207;DHT22;11773;52.570;13.052;2023-03-01T17:06:11;6.40;99.90
23207;DHT22;11773;52.570;13.052;2023-03-01T17:08:43;6.30;99.90
23207;DHT22;11773;52.570;13.052;2023-03-01T17:11:17;6.20;99.90
23207;DHT22;11773;52.570;13.052;2023-03-01T17:13:48;6.10;99.90
23207;DHT22;11773;52.570;13.052;2023-03-01T17:16:19;6.00;99.90
23207;DHT22;11773;52.570;13.052;2023-03-01T17:18:49;6.10;99.90
23207;DHT22;11773;52.570;13.052;2023-03-01T17:21:18;6.10;99.90